createdAt,value
2022-07-28T00:01:10.084Z,99.60
2022-07-28T00:03:37.170Z,99.70
2022-07-28T00:06:05.175Z,99.70
2022-07-28T00:08:32.321Z,99.80
2022-07-28T00:10:59.384Z,99.80
2022-07-28T00:13:26.498Z,99.90
2022-07-28T00:15:53.769Z,99.90
2022-07-28T00:18:20.874Z,99.90
2022-07-28T00:20:47.980Z,99.90
2022-07-28T00:23:15.089Z,99.90
2022-07-28T00:25:42.273Z,99.90
2022-07-28T00:28:09.367Z,99.90
2022-07-28T00:30:36.625Z,99.90
2022-07-28T00:33:04.582Z,99.90
2022-07-28T00:35:31.949Z,99.90
2022-07-28T00:38:01.064Z,99.90
2022-07-28T00:40:47.288Z,99.90
2022-07-28T00:43:15.406Z,99.90
2022-07-28T00:45:44.393Z,99.90
2022-07-28T00:48:11.484Z,99.90
2022-07-28T00:50:40.207Z,99.90
2022-07-28T00:53:08.806Z,99.90
2022-07-28T00:56:03.465Z,99.90
2022-07-28T00:58:27.746Z,99.90
2022-07-28T01:00:55.454Z,99.90
2022-07-28T01:03:23.615Z,99.90
2022-07-28T01:05:59.605Z,99.90
2022-07-28T01:08:58.277Z,99.90
2022-07-28T01:11:42.886Z,99.90
2022-07-28T01:14:13.361Z,99.90
2022-07-28T01:17:24.678Z,99.90
2022-07-28T01:20:10.191Z,99.90
2022-07-28T01:22:46.018Z,99.90
2022-07-28T01:25:32.608Z,99.90
2022-07-28T01:28:24.411Z,99.90
2022-07-28T01:30:54.812Z,99.90
2022-07-28T01:33:43.774Z,99.90
2022-07-28T01:36:14.648Z,99.90
2022-07-28T01:38:43.064Z,99.90
2022-07-28T01:41:15.024Z,99.90
2022-07-28T01:43:45.809Z,99.90
2022-07-28T01:46:15.078Z,99.90
2022-07-28T01:48:45.015Z,99.90
2022-07-28T01:51:14.665Z,99.90
2022-07-28T01:53:43.595Z,99.90
2022-07-28T01:56:11.424Z,99.90
2022-07-28T01:58:40.251Z,99.90
2022-07-28T02:01:07.854Z,99.90
2022-07-28T02:03:36.717Z,99.90
2022-07-28T02:06:06.420Z,99.90
2022-07-28T02:08:35.937Z,99.90
2022-07-28T02:11:21.684Z,99.90
2022-07-28T02:13:50.297Z,99.90
2022-07-28T02:16:21.171Z,99.90
2022-07-28T02:18:50.761Z,99.90
2022-07-28T02:21:19.720Z,99.90
2022-07-28T02:23:49.062Z,99.90
2022-07-28T02:26:18.536Z,99.90
2022-07-28T02:28:51.556Z,99.90
2022-07-28T02:31:27.736Z,99.90
2022-07-28T02:34:02.291Z,99.90
2022-07-28T02:36:38.245Z,99.90
2022-07-28T02:39:21.302Z,99.90
2022-07-28T02:41:53.498Z,99.90
2022-07-28T02:44:24.882Z,99.90
2022-07-28T02:46:53.715Z,99.90
2022-07-28T02:49:25.902Z,99.90
2022-07-28T02:51:55.280Z,99.90
2022-07-28T02:54:25.764Z,99.90
2022-07-28T02:56:54.302Z,99.90
2022-07-28T02:59:22.230Z,99.90
2022-07-28T03:01:50.659Z,99.90
2022-07-28T03:04:38.787Z,99.90
2022-07-28T03:07:06.639Z,99.90
2022-07-28T03:09:46.176Z,99.90
2022-07-28T03:12:13.559Z,99.90
2022-07-28T03:14:42.021Z,99.90
2022-07-28T03:17:09.510Z,99.90
2022-07-28T03:19:37.146Z,99.90
2022-07-28T03:22:05.427Z,99.90
2022-07-28T03:24:37.035Z,99.90
2022-07-28T03:27:22.173Z,99.90
2022-07-28T03:29:54.596Z,99.90
2022-07-28T03:32:24.006Z,99.90
2022-07-28T03:34:52.645Z,99.90
2022-07-28T03:37:32.553Z,99.90
2022-07-28T03:40:00.748Z,99.90
2022-07-28T03:42:30.786Z,99.90
2022-07-28T03:44:58.095Z,99.90
2022-07-28T03:47:25.385Z,99.90
2022-07-28T03:49:52.429Z,99.90
2022-07-28T03:52:19.639Z,99.90
2022-07-28T03:54:46.932Z,99.90
2022-07-28T03:57:14.297Z,99.90
2022-07-28T03:59:41.405Z,99.90
2022-07-28T04:02:08.563Z,99.90
2022-07-28T04:04:35.629Z,99.90
2022-07-28T04:07:02.737Z,99.90
2022-07-28T04:09:29.785Z,99.90
2022-07-28T04:11:56.868Z,99.90
2022-07-28T04:14:24.720Z,99.90
2022-07-28T04:16:52.104Z,99.90
2022-07-28T04:19:19.183Z,99.90
2022-07-28T04:21:46.795Z,99.90
2022-07-28T04:24:14.265Z,99.90
2022-07-28T04:26:41.570Z,99.90
2022-07-28T04:29:11.474Z,99.90
2022-07-28T04:31:38.541Z,99.90
2022-07-28T04:34:05.657Z,99.90
2022-07-28T04:36:33.103Z,99.90
2022-07-28T04:39:00.654Z,99.90
2022-07-28T04:41:27.785Z,99.90
2022-07-28T04:43:55.030Z,99.90
2022-07-28T04:46:22.188Z,99.90
2022-07-28T04:48:49.329Z,99.90
2022-07-28T04:51:16.611Z,99.90
2022-07-28T04:53:43.854Z,99.90
2022-07-28T04:56:10.903Z,99.90
2022-07-28T04:58:38.050Z,99.90
2022-07-28T05:01:05.488Z,99.90
2022-07-28T05:03:36.105Z,99.90
2022-07-28T05:06:03.701Z,99.90
2022-07-28T05:08:30.790Z,99.90
2022-07-28T05:10:57.892Z,99.90
2022-07-28T05:13:28.971Z,99.90
2022-07-28T05:15:58.869Z,99.90
2022-07-28T05:18:25.969Z,99.90
2022-07-28T05:20:53.110Z,99.90
2022-07-28T05:23:20.144Z,99.90
2022-07-28T05:25:47.286Z,99.90
2022-07-28T05:28:14.331Z,99.90
2022-07-28T05:30:43.989Z,99.90
2022-07-28T05:33:11.137Z,99.90
2022-07-28T05:35:38.223Z,99.90
2022-07-28T05:38:10.365Z,99.90
2022-07-28T05:40:38.029Z,99.90
2022-07-28T05:43:05.108Z,99.90
2022-07-28T05:45:34.184Z,99.90
2022-07-28T05:48:01.364Z,99.90
2022-07-28T05:50:28.411Z,99.90
2022-07-28T05:52:55.469Z,99.90
2022-07-28T05:55:22.614Z,99.90
2022-07-28T05:57:49.690Z,99.90
2022-07-28T06:00:19.964Z,99.90
2022-07-28T06:02:51.089Z,99.90
2022-07-28T06:05:20.646Z,99.90
2022-07-28T06:07:49.744Z,99.90
2022-07-28T06:10:20.436Z,99.90
2022-07-28T06:12:49.693Z,99.90
2022-07-28T06:15:26.141Z,99.90
2022-07-28T06:17:55.825Z,99.90
2022-07-28T06:20:25.345Z,99.90
2022-07-28T06:22:54.214Z,99.90
2022-07-28T06:25:23.644Z,99.90
2022-07-28T06:27:54.020Z,99.90
2022-07-28T06:30:22.122Z,99.90
2022-07-28T06:32:50.290Z,99.90
2022-07-28T06:35:18.657Z,99.90
2022-07-28T06:37:50.223Z,99.90
2022-07-28T06:40:18.771Z,99.90
2022-07-28T06:42:46.642Z,99.90
2022-07-28T06:45:20.976Z,99.90
2022-07-28T06:47:52.485Z,99.90
2022-07-28T06:50:27.027Z,99.90
2022-07-28T06:52:58.984Z,99.90
2022-07-28T06:55:34.392Z,99.90
2022-07-28T06:58:02.639Z,99.90
2022-07-28T07:00:30.049Z,99.70
2022-07-28T07:02:57.390Z,99.50
2022-07-28T07:05:26.360Z,99.40
2022-07-28T07:07:53.448Z,99.20
2022-07-28T07:10:20.533Z,99.00
2022-07-28T07:12:47.666Z,98.90
2022-07-28T07:15:14.728Z,98.90
2022-07-28T07:17:42.587Z,98.60
2022-07-28T07:20:10.764Z,98.50
2022-07-28T07:22:47.841Z,98.40
2022-07-28T07:25:17.232Z,98.30
2022-07-28T07:27:45.470Z,98.30
2022-07-28T07:30:14.031Z,98.20
2022-07-28T07:32:41.521Z,98.00
2022-07-28T07:35:08.772Z,97.90
2022-07-28T07:37:35.924Z,97.70
2022-07-28T07:40:05.565Z,97.90
2022-07-28T07:42:32.824Z,97.60
2022-07-28T07:44:59.999Z,97.60
2022-07-28T07:47:27.177Z,97.40
2022-07-28T07:49:54.292Z,97.30
2022-07-28T07:52:21.381Z,97.00
2022-07-28T07:54:48.511Z,96.90
2022-07-28T07:57:15.811Z,96.90
2022-07-28T07:59:42.876Z,97.00
2022-07-28T08:02:10.099Z,96.90
2022-07-28T08:04:39.119Z,96.60
2022-07-28T08:07:07.892Z,96.30
2022-07-28T08:09:35.496Z,95.80
2022-07-28T08:12:03.113Z,95.90
2022-07-28T08:14:30.416Z,96.20
2022-07-28T08:16:59.546Z,95.90
2022-07-28T08:19:26.801Z,95.90
2022-07-28T08:21:55.725Z,95.80
2022-07-28T08:24:33.827Z,95.60
2022-07-28T08:27:04.584Z,95.40
2022-07-28T08:29:31.809Z,95.30
2022-07-28T08:31:59.062Z,95.20
2022-07-28T08:34:28.463Z,95.20
2022-07-28T08:37:02.562Z,95.00
2022-07-28T08:39:31.364Z,94.80
2022-07-28T08:42:27.472Z,94.70
2022-07-28T08:44:58.608Z,94.30
2022-07-28T08:47:40.538Z,93.70
2022-07-28T08:50:16.461Z,93.40
2022-07-28T08:52:46.556Z,93.20
2022-07-28T08:55:19.448Z,92.80
2022-07-28T08:57:46.956Z,92.80
2022-07-28T09:00:14.398Z,92.80
2022-07-28T09:02:46.739Z,92.00
2022-07-28T09:05:23.373Z,91.20
2022-07-28T09:07:54.470Z,90.90
2022-07-28T09:10:22.220Z,91.30
2022-07-28T09:12:49.550Z,91.00
2022-07-28T09:15:16.732Z,90.20
2022-07-28T09:17:43.810Z,89.50
2022-07-28T09:20:12.127Z,88.80
2022-07-28T09:22:57.117Z,87.90
2022-07-28T09:25:24.940Z,85.90
2022-07-28T09:27:52.118Z,84.80
2022-07-28T09:30:31.276Z,85.20
2022-07-28T09:33:41.855Z,83.50
2022-07-28T09:36:13.167Z,82.60
2022-07-28T09:38:41.859Z,82.00
2022-07-28T09:41:09.059Z,81.90
2022-07-28T09:43:42.077Z,80.10
2022-07-28T09:46:12.448Z,79.90
2022-07-28T09:49:00.821Z,80.00
2022-07-28T09:51:30.873Z,80.00
2022-07-28T09:54:10.531Z,79.70
2022-07-28T09:56:39.610Z,79.10
2022-07-28T09:59:08.632Z,80.00
2022-07-28T10:01:55.032Z,79.00
2022-07-28T10:04:37.028Z,76.90
2022-07-28T10:07:05.858Z,75.80
2022-07-28T10:09:33.722Z,75.90
2022-07-28T10:12:20.468Z,75.40
2022-07-28T10:14:50.977Z,75.30
2022-07-28T10:17:25.724Z,75.90
2022-07-28T10:19:55.233Z,75.20
2022-07-28T10:22:25.429Z,75.30
2022-07-28T10:24:53.943Z,74.20
2022-07-28T10:27:24.999Z,73.70
2022-07-28T10:29:59.987Z,72.20
2022-07-28T10:32:29.783Z,71.10
2022-07-28T10:35:04.144Z,71.50
2022-07-28T10:37:36.590Z,71.90
2022-07-28T10:40:10.621Z,72.00
2022-07-28T10:42:40.799Z,71.00
2022-07-28T10:45:11.327Z,69.90
2022-07-28T10:47:38.450Z,68.40
2022-07-28T10:50:06.129Z,68.00
2022-07-28T10:52:47.424Z,67.30
2022-07-28T10:55:32.020Z,65.50
2022-07-28T10:58:26.428Z,64.60
2022-07-28T11:00:58.209Z,62.90
2022-07-28T11:03:43.990Z,62.20
2022-07-28T11:06:28.066Z,61.30
2022-07-28T11:08:56.816Z,60.60
2022-07-28T11:11:42.483Z,61.10
2022-07-28T11:14:26.048Z,59.70
2022-07-28T11:17:13.515Z,59.80
2022-07-28T11:22:34.913Z,60.00
2022-07-28T11:25:18.732Z,61.20
2022-07-28T11:27:52.118Z,61.20
2022-07-28T11:30:19.679Z,61.00
2022-07-28T11:32:55.905Z,61.80
2022-07-28T11:35:24.952Z,62.00
2022-07-28T11:38:03.882Z,62.70
2022-07-28T11:40:38.770Z,62.60
2022-07-28T11:43:37.556Z,65.20
2022-07-28T11:46:09.717Z,70.10
2022-07-28T11:48:39.115Z,71.40
2022-07-28T11:51:06.257Z,73.60
2022-07-28T11:53:42.029Z,75.20
2022-07-28T11:56:14.563Z,76.80
2022-07-28T11:58:42.998Z,78.30
2022-07-28T12:01:21.140Z,79.30
2022-07-28T12:03:56.154Z,79.60
2022-07-28T12:06:28.647Z,80.20
2022-07-28T12:09:02.471Z,81.20
2022-07-28T12:11:38.237Z,81.20
2022-07-28T12:14:14.193Z,81.10
2022-07-28T12:16:44.160Z,81.60
2022-07-28T12:19:14.993Z,81.70
2022-07-28T12:21:56.835Z,82.40
2022-07-28T12:24:45.970Z,82.50
2022-07-28T12:27:16.816Z,82.30
2022-07-28T12:29:47.830Z,82.90
2022-07-28T12:32:17.754Z,83.60
2022-07-28T12:34:45.721Z,84.10
2022-07-28T12:37:14.065Z,84.50
2022-07-28T12:39:43.524Z,84.80
2022-07-28T12:42:12.591Z,85.30
2022-07-28T12:44:43.920Z,86.00
2022-07-28T12:47:12.618Z,86.90
2022-07-28T12:49:41.627Z,86.70
2022-07-28T12:52:25.480Z,87.00
2022-07-28T12:54:55.670Z,87.60
2022-07-28T12:57:50.569Z,87.90
2022-07-28T13:00:27.740Z,88.50
2022-07-28T13:02:56.543Z,88.20
2022-07-28T13:06:03.327Z,87.50
2022-07-28T13:08:46.299Z,87.20
2022-07-28T13:11:42.544Z,87.20
2022-07-28T13:14:02.767Z,87.20
2022-07-28T13:16:30.242Z,88.00
2022-07-28T13:19:00.889Z,87.10
2022-07-28T13:21:57.573Z,86.50
2022-07-28T13:24:27.367Z,87.00
2022-07-28T13:26:54.861Z,86.20
2022-07-28T13:29:22.750Z,86.30
2022-07-28T13:31:50.330Z,86.70
2022-07-28T13:34:17.947Z,86.60
2022-07-28T13:36:45.288Z,86.30
2022-07-28T13:39:14.035Z,86.50
2022-07-28T13:41:57.941Z,86.00
2022-07-28T13:44:29.200Z,85.90
2022-07-28T13:46:58.975Z,86.10
2022-07-28T13:49:27.848Z,86.00
2022-07-28T13:51:55.368Z,85.50
2022-07-28T13:54:23.045Z,85.90
2022-07-28T13:56:51.130Z,85.10
2022-07-28T13:59:18.287Z,84.80
2022-07-28T14:01:49.646Z,84.40
2022-07-28T14:04:18.869Z,84.20
2022-07-28T14:06:48.832Z,84.70
2022-07-28T14:09:18.375Z,84.20
2022-07-28T14:11:50.171Z,83.90
2022-07-28T14:14:24.076Z,83.10
2022-07-28T14:16:54.187Z,83.40
2022-07-28T14:19:39.402Z,83.40
2022-07-28T14:22:13.391Z,82.50
2022-07-28T14:24:42.594Z,81.90
2022-07-28T14:27:10.588Z,82.20
2022-07-28T14:29:38.080Z,81.50
2022-07-28T14:32:05.672Z,81.20
2022-07-28T14:34:32.712Z,81.50
2022-07-28T14:37:05.820Z,81.60
2022-07-28T14:39:37.141Z,81.90
2022-07-28T14:42:05.013Z,81.40
2022-07-28T14:44:32.053Z,82.10
2022-07-28T14:46:59.309Z,82.90
2022-07-28T14:49:26.559Z,83.40
2022-07-28T14:51:56.217Z,83.50
2022-07-28T14:54:23.590Z,83.70
2022-07-28T14:56:50.884Z,85.20
2022-07-28T14:59:18.025Z,84.80
2022-07-28T15:01:45.260Z,85.20
2022-07-28T15:04:16.659Z,85.90
2022-07-28T15:06:44.476Z,86.00
2022-07-28T15:09:11.790Z,85.10
2022-07-28T15:11:39.907Z,85.10
2022-07-28T15:14:07.109Z,85.50
2022-07-28T15:16:34.347Z,86.00
2022-07-28T15:19:02.667Z,86.70
2022-07-28T15:21:34.308Z,87.00
2022-07-28T15:24:04.123Z,86.90
2022-07-28T15:26:31.200Z,87.10
2022-07-28T15:28:58.407Z,87.20
2022-07-28T15:31:26.049Z,86.60
2022-07-28T15:33:57.598Z,86.40
2022-07-28T15:36:25.925Z,85.80
2022-07-28T15:38:54.627Z,85.80
2022-07-28T15:41:22.121Z,85.40
2022-07-28T15:43:49.324Z,85.50
2022-07-28T15:46:16.696Z,85.20
2022-07-28T15:48:44.899Z,85.70
2022-07-28T15:51:12.412Z,85.80
2022-07-28T15:53:41.299Z,85.70
2022-07-28T15:56:09.007Z,85.40
2022-07-28T15:58:37.039Z,85.00
2022-07-28T16:01:04.312Z,85.20
2022-07-28T16:03:31.416Z,84.20
2022-07-28T16:05:59.138Z,84.40
2022-07-28T16:08:27.056Z,84.70
2022-07-28T16:10:54.842Z,84.50
2022-07-28T16:13:28.663Z,84.20
2022-07-28T16:16:10.266Z,83.60
2022-07-28T16:18:38.653Z,84.00
2022-07-28T16:21:07.511Z,83.90
2022-07-28T16:23:34.941Z,83.80
2022-07-28T16:26:02.974Z,83.80
2022-07-28T16:28:30.016Z,83.70
2022-07-28T16:30:57.244Z,83.60
2022-07-28T16:33:24.732Z,83.90
2022-07-28T16:35:52.363Z,83.20
2022-07-28T16:38:20.379Z,83.80
2022-07-28T16:40:47.505Z,83.70
2022-07-28T16:43:14.586Z,82.50
2022-07-28T16:45:42.485Z,82.70
2022-07-28T16:48:09.680Z,81.80
2022-07-28T16:50:36.813Z,81.70
2022-07-28T16:53:06.722Z,82.30
2022-07-28T16:55:33.996Z,80.80
2022-07-28T16:58:01.118Z,81.00
2022-07-28T17:00:29.802Z,81.70
2022-07-28T17:02:57.404Z,80.30
2022-07-28T17:05:25.258Z,79.80
2022-07-28T17:07:52.618Z,79.90
2022-07-28T17:10:20.335Z,80.30
2022-07-28T17:12:54.087Z,78.60
2022-07-28T17:15:22.451Z,77.80
2022-07-28T17:17:53.380Z,78.70
2022-07-28T17:20:21.241Z,78.00
2022-07-28T17:22:48.752Z,78.10
2022-07-28T17:25:44.542Z,77.10
2022-07-28T17:28:04.914Z,75.80
2022-07-28T17:30:33.560Z,74.70
2022-07-28T17:33:06.275Z,71.60
2022-07-28T17:35:36.203Z,71.70
2022-07-28T17:38:04.938Z,70.40
2022-07-28T17:40:32.059Z,69.30
2022-07-28T17:42:59.293Z,67.40
2022-07-28T17:45:26.598Z,67.70
2022-07-28T17:47:53.950Z,68.20
2022-07-28T17:50:22.051Z,69.20
2022-07-28T17:52:49.339Z,67.40
2022-07-28T17:55:55.744Z,66.30
2022-07-28T17:58:29.544Z,66.00
2022-07-28T18:01:09.606Z,65.00
2022-07-28T18:03:57.935Z,64.10
2022-07-28T18:06:34.127Z,63.50
2022-07-28T18:09:08.147Z,62.80
2022-07-28T18:11:56.568Z,61.70
2022-07-28T18:14:26.971Z,62.10
2022-07-28T18:16:54.329Z,61.50
2022-07-28T18:19:21.909Z,60.80
2022-07-28T18:21:49.300Z,59.90
2022-07-28T18:24:17.027Z,59.50
2022-07-28T18:26:44.427Z,60.20
2022-07-28T18:29:11.472Z,60.40
2022-07-28T18:31:45.811Z,60.20
2022-07-28T18:34:14.124Z,60.20
2022-07-28T18:36:41.543Z,60.10
2022-07-28T18:39:08.790Z,60.10
2022-07-28T18:41:46.184Z,59.90
2022-07-28T18:44:14.326Z,59.90
2022-07-28T18:46:41.753Z,61.20
2022-07-28T18:49:09.038Z,62.90
2022-07-28T18:51:36.410Z,64.70
2022-07-28T18:54:04.113Z,66.60
2022-07-28T18:56:31.940Z,67.90
2022-07-28T18:58:59.732Z,69.00
2022-07-28T19:01:26.876Z,70.20
2022-07-28T19:03:54.050Z,71.90
2022-07-28T19:06:21.646Z,72.70
2022-07-28T19:08:48.922Z,73.70
2022-07-28T19:11:19.850Z,74.00
2022-07-28T19:13:47.801Z,74.70
2022-07-28T19:16:15.080Z,75.30
2022-07-28T19:18:42.196Z,75.50
2022-07-28T19:21:09.432Z,76.10
2022-07-28T19:23:36.866Z,77.00
2022-07-28T19:26:03.990Z,77.80
2022-07-28T19:28:31.162Z,78.20
2022-07-28T19:31:00.096Z,78.80
2022-07-28T19:33:37.513Z,79.60
2022-07-28T19:36:10.938Z,80.30
2022-07-28T19:38:38.284Z,80.90
2022-07-28T19:41:05.333Z,81.50
2022-07-28T19:43:32.448Z,81.80
2022-07-28T19:46:00.380Z,82.10
2022-07-28T19:48:27.752Z,82.40
2022-07-28T19:50:54.897Z,82.70
2022-07-28T19:53:25.116Z,83.00
2022-07-28T19:55:58.839Z,83.50
2022-07-28T19:58:26.071Z,84.00
2022-07-28T20:00:54.143Z,84.40
2022-07-28T20:04:00.725Z,84.80
2022-07-28T20:06:11.975Z,85.20
2022-07-28T20:08:39.870Z,85.50
2022-07-28T20:11:08.527Z,85.90
2022-07-28T20:13:35.661Z,86.30
2022-07-28T20:16:02.989Z,86.70
2022-07-28T20:18:30.101Z,87.10
2022-07-28T20:20:57.713Z,87.50
2022-07-28T20:23:24.777Z,87.80
2022-07-28T20:25:51.975Z,88.10
2022-07-28T20:28:19.331Z,88.30
2022-07-28T20:30:46.485Z,88.70
2022-07-28T20:33:13.592Z,89.00
2022-07-28T20:35:40.820Z,89.20
2022-07-28T20:38:08.537Z,89.50
2022-07-28T20:40:35.816Z,89.90
2022-07-28T20:43:03.051Z,90.10
2022-07-28T20:45:31.929Z,90.20
2022-07-28T20:47:59.249Z,90.30
2022-07-28T20:50:26.534Z,90.40
2022-07-28T20:52:53.620Z,90.50
2022-07-28T20:55:20.974Z,90.70
2022-07-28T20:57:53.098Z,90.80
2022-07-28T21:00:21.159Z,90.80
2022-07-28T21:02:48.291Z,91.00
2022-07-28T21:05:26.460Z,91.10
2022-07-28T21:08:04.654Z,91.20
2022-07-28T21:10:34.067Z,91.30
2022-07-28T21:13:01.305Z,91.50
2022-07-28T21:15:28.560Z,91.70
2022-07-28T21:17:57.293Z,91.90
2022-07-28T21:20:24.952Z,92.10
2022-07-28T21:22:52.292Z,92.20
2022-07-28T21:25:19.860Z,92.30
2022-07-28T21:28:05.845Z,92.40
2022-07-28T21:30:33.108Z,92.50
2022-07-28T21:33:00.304Z,92.70
2022-07-28T21:35:27.549Z,92.90
2022-07-28T21:37:54.581Z,92.90
2022-07-28T21:40:21.687Z,93.00
2022-07-28T21:42:48.760Z,93.10
2022-07-28T21:45:15.923Z,93.20
2022-07-28T21:47:43.041Z,93.40
2022-07-28T21:50:10.941Z,93.50
2022-07-28T21:52:38.628Z,93.70
2022-07-28T21:55:08.273Z,93.80
2022-07-28T21:57:36.009Z,94.00
2022-07-28T22:00:06.039Z,94.20
2022-07-28T22:02:33.138Z,94.30
2022-07-28T22:05:01.278Z,94.30
2022-07-28T22:07:28.525Z,94.40
2022-07-28T22:09:55.594Z,94.50
2022-07-28T22:12:23.125Z,94.60
2022-07-28T22:14:50.563Z,94.70
2022-07-28T22:17:17.714Z,94.80
2022-07-28T22:19:44.818Z,94.90
2022-07-28T22:22:11.898Z,94.90
2022-07-28T22:24:38.991Z,95.10
2022-07-28T22:27:06.368Z,95.10
2022-07-28T22:29:33.693Z,95.20
2022-07-28T22:32:01.400Z,95.30
2022-07-28T22:34:29.966Z,95.40
2022-07-28T22:36:56.995Z,95.50
2022-07-28T22:39:24.056Z,95.60
2022-07-28T22:41:51.144Z,95.70
2022-07-28T22:44:18.577Z,95.80
2022-07-28T22:46:46.316Z,95.90
2022-07-28T22:49:13.557Z,95.90
2022-07-28T22:51:40.841Z,96.00
2022-07-28T22:54:15.925Z,96.20
2022-07-28T22:56:43.458Z,96.20
2022-07-28T22:59:10.730Z,96.40
2022-07-28T23:01:41.576Z,96.50
2022-07-28T23:04:08.652Z,96.60
2022-07-28T23:06:35.782Z,96.60
2022-07-28T23:09:02.958Z,96.70
2022-07-28T23:11:30.085Z,96.70
2022-07-28T23:13:57.145Z,96.80
2022-07-28T23:16:24.292Z,96.90
2022-07-28T23:18:51.374Z,97.00
2022-07-28T23:21:18.436Z,97.00
2022-07-28T23:23:45.579Z,97.10
2022-07-28T23:26:12.631Z,97.20
2022-07-28T23:28:41.270Z,97.30
2022-07-28T23:31:08.601Z,97.70
2022-07-28T23:33:55.290Z,97.50
2022-07-28T23:36:27.308Z,97.50
2022-07-28T23:38:59.122Z,97.50
2022-07-28T23:41:27.419Z,97.60
2022-07-28T23:43:54.803Z,97.60
2022-07-28T23:46:22.266Z,97.70
2022-07-28T23:48:49.657Z,97.90
2022-07-28T23:51:16.883Z,98.00
2022-07-28T23:53:44.309Z,98.00
2022-07-28T23:56:11.402Z,98.00
2022-07-28T23:58:38.445Z,98.10
